10 de agosto de 2022

Hora Código Tiempo Temp. Visibilidad Cielo nuboso Viento METAR/SPECI
14:30
V
36 °C 10 km+ - Var Var 5 kt METAR LFBD 101230Z AUTO VRB05KT CAVOK 36/07 Q1015 NOSIG
14:00
V
35 °C 10 km+ - 080° 080° 9 kt METAR LFBD 101200Z AUTO 08009KT 050V120 CAVOK 35/07 Q1015 NOSIG
13:30
V
34 °C 10 km+ - 060° 060° 7 kt METAR LFBD 101130Z AUTO 06007KT 020V100 CAVOK 34/08 Q1016 NOSIG
13:00
V
34 °C 10 km+ - 050° 050° 8 kt METAR LFBD 101100Z AUTO 05008KT 010V090 CAVOK 34/09 Q1016 NOSIG
12:30
V
33 °C 10 km+ - 050° 050° 8 kt METAR LFBD 101030Z AUTO 05008KT CAVOK 33/09 Q1016 NOSIG
12:00
V
32 °C 10 km+ - 060° 060° 6 kt METAR LFBD 101000Z AUTO 06006KT 010V100 CAVOK 32/10 Q1016 NOSIG
11:30
V
31 °C 10 km+ - 070° 070° 6 kt METAR LFBD 100930Z AUTO 07006KT 030V100 CAVOK 31/10 Q1016 NOSIG
11:00
V
29 °C 10 km+ - 050° 050° 6 kt METAR LFBD 100900Z AUTO 05006KT 020V090 CAVOK 29/10 Q1017 NOSIG
10:30
V
28 °C 10 km+ - 060° 060° 6 kt METAR LFBD 100830Z AUTO 06006KT 020V080 CAVOK 28/10 Q1017 NOSIG
10:00
V
27 °C 10 km+ - 060° 060° 5 kt METAR LFBD 100800Z AUTO 06005KT CAVOK 27/11 Q1017 NOSIG
09:30
V
25 °C 10 km+ - 060° 060° 5 kt METAR LFBD 100730Z AUTO 06005KT 030V090 CAVOK 25/11 Q1017 NOSIG
09:00
V
24 °C 10 km+ - 050° 050° 7 kt METAR LFBD 100700Z AUTO 05007KT 010V070 CAVOK 24/11 Q1017 NOSIG
08:30
V
24 °C 10 km+ - 030° 030° 5 kt METAR LFBD 100630Z AUTO 03005KT CAVOK 24/11 Q1017 NOSIG
08:00
V
22 °C 10 km+ - 040° 040° 5 kt METAR LFBD 100600Z AUTO 04005KT 360V060 CAVOK 22/11 Q1016 NOSIG
07:30
V
21 °C 10 km+ - 040° 040° 5 kt METAR LFBD 100530Z AUTO 04005KT CAVOK 21/11 Q1016 NOSIG
07:00
V
21 °C 10 km+ - 040° 040° 5 kt METAR LFBD 100500Z AUTO 04005KT CAVOK 21/11 Q1016 NOSIG
06:30
V
21 °C 10 km+ - 030° 030° 4 kt METAR LFBD 100430Z AUTO 03004KT 340V050 CAVOK 21/11 Q1016 NOSIG
06:00
V
21 °C 10 km+ - 020° 020° 3 kt METAR LFBD 100400Z AUTO 02003KT CAVOK 21/10 Q1016 NOSIG
05:30
V
22 °C 10 km+ - 030° 030° 2 kt METAR LFBD 100330Z AUTO 03002KT CAVOK 22/10 Q1017 NOSIG
05:00
V
22 °C 10 km+ - 030° 030° 5 kt METAR LFBD 100300Z AUTO 03005KT CAVOK 22/11 Q1017 NOSIG
04:30
V
22 °C 10 km+ - 040° 040° 4 kt METAR LFBD 100230Z AUTO 04004KT CAVOK 22/11 Q1017 NOSIG
04:00
V
22 °C 10 km+ - 030° 030° 4 kt METAR LFBD 100200Z AUTO 03004KT CAVOK 22/10 Q1017 NOSIG
03:30
V
23 °C 10 km+ - 030° 030° 5 kt METAR LFBD 100130Z AUTO 03005KT CAVOK 23/10 Q1017 NOSIG
03:00
V
24 °C 10 km+ - 040° 040° 5 kt METAR LFBD 100100Z AUTO 04005KT CAVOK 24/10 Q1017 NOSIG
02:30
V
25 °C 10 km+ - 030° 030° 7 kt METAR LFBD 100030Z AUTO 03007KT CAVOK 25/10 Q1017 NOSIG
02:00
V
26 °C 10 km+ - 030° 030° 6 kt METAR LFBD 100000Z AUTO 03006KT CAVOK 26/10 Q1017 NOSIG
01:30
V
26 °C 10 km+ - 030° 030° 6 kt METAR LFBD 092330Z AUTO 03006KT CAVOK 26/10 Q1017 NOSIG
01:00
V
27 °C 10 km+ - 030° 030° 7 kt METAR LFBD 092300Z AUTO 03007KT CAVOK 27/11 Q1017 NOSIG
00:30
V
27 °C 10 km+ - 030° 030° 7 kt METAR LFBD 092230Z AUTO 03007KT CAVOK 27/11 Q1017 NOSIG
00:00
V
28 °C 10 km+ - 030° 030° 7 kt METAR LFBD 092200Z AUTO 03007KT CAVOK 28/11 Q1017 NOSIG

9 de agosto de 2022

Hora Código Tiempo Temp. Visibilidad Cielo nuboso Viento METAR/SPECI
23:30
V
28 °C 10 km+ - 030° 030° 7 kt METAR LFBD 092130Z AUTO 03007KT CAVOK 28/11 Q1017 NOSIG
23:00
V
28 °C 10 km+ - 020° 020° 7 kt METAR LFBD 092100Z AUTO 02007KT CAVOK 28/11 Q1017 NOSIG
22:30
V
29 °C 10 km+ - 010° 010° 7 kt METAR LFBD 092030Z AUTO 01007KT CAVOK 29/12 Q1017 NOSIG
22:00
V
30 °C 10 km+ - 010° 010° 7 kt METAR LFBD 092000Z AUTO 01007KT CAVOK 30/11 Q1017 NOSIG
21:30
V
31 °C 10 km+ - 010° 010° 7 kt METAR LFBD 091930Z AUTO 01007KT CAVOK 31/11 Q1017 NOSIG
21:00
V
32 °C 10 km+ - 010° 010° 7 kt METAR LFBD 091900Z AUTO 01007KT CAVOK 32/10 Q1017 NOSIG
20:30
V
33 °C 10 km+ - 020° 020° 10 kt METAR LFBD 091830Z AUTO 02010KT CAVOK 33/09 Q1017 NOSIG
20:00
V
33 °C 10 km+ - 020° 020° 9 kt METAR LFBD 091800Z AUTO 02009KT CAVOK 33/09 Q1016 NOSIG
19:30
V
34 °C 10 km+ - 030° 030° 13 kt METAR LFBD 091730Z AUTO 03013KT 340V050 CAVOK 34/10 Q1016 NOSIG
19:00
V
35 °C 10 km+ - 010° 010° 11 kt METAR LFBD 091700Z AUTO 01011KT 340V060 CAVOK 35/08 Q1016 NOSIG
18:30
V
35 °C 10 km+ - 020° 020° 9 kt METAR LFBD 091630Z AUTO 02009KT 340V070 CAVOK 35/08 Q1016 NOSIG
18:00
V
36 °C 10 km+ - 020° 020° 9 kt METAR LFBD 091600Z AUTO 02009KT 350V060 CAVOK 36/07 Q1017 NOSIG
17:30
V
35 °C 10 km+ - 030° 030° 8 kt METAR LFBD 091530Z AUTO 03008KT 350V110 CAVOK 35/07 Q1017 NOSIG
17:00
V
35 °C 10 km+ - 010° 010° 8 kt METAR LFBD 091500Z AUTO 01008KT 320V100 CAVOK 35/07 Q1017 NOSIG
16:30
V
35 °C 10 km+ - 040° 040° 9 kt METAR LFBD 091430Z AUTO 04009KT 350V080 CAVOK 35/07 Q1017 NOSIG
16:00
V
35 °C 10 km+ - 030° 030° 8 kt METAR LFBD 091400Z AUTO 03008KT 340V070 CAVOK 35/07 Q1017 NOSIG
15:30
V
35 °C 10 km+ - 030° 030° 7 kt METAR LFBD 091330Z AUTO 03007KT 320V110 CAVOK 35/08 Q1018 NOSIG
15:00
V
35 °C 10 km+ - 070° 070° 7 kt METAR LFBD 091300Z AUTO 07007KT 010V180 CAVOK 35/08 Q1018 NOSIG
14:30
V
34 °C 10 km+ - 050° 050° 10 kt METAR LFBD 091230Z AUTO 05010KT 360V090 CAVOK 34/08 Q1018 NOSIG
14:00
V
33 °C 10 km+ - 050° 050° 9 kt METAR LFBD 091200Z AUTO 05009KT 010V080 CAVOK 33/09 Q1018 NOSIG
13:30
V
32 °C 10 km+ - 040° 040° 10 kt METAR LFBD 091130Z AUTO 04010KT 360V070 CAVOK 32/10 Q1019 NOSIG
13:00
V
31 °C 10 km+ - 050° 050° 9 kt METAR LFBD 091100Z AUTO 05009KT 030V090 CAVOK 31/10 Q1019 NOSIG
12:30
V
30 °C 10 km+ - 040° 040° 6 kt METAR LFBD 091030Z AUTO 04006KT 330V080 CAVOK 30/11 Q1019 NOSIG
12:00
V
28 °C 10 km+ - 040° 040° 5 kt METAR LFBD 091000Z AUTO 04005KT 360V080 CAVOK 28/11 Q1019 NOSIG
11:30
V
28 °C 10 km+ - 040° 040° 4 kt METAR LFBD 090930Z AUTO 04004KT 360V090 CAVOK 28/10 Q1019 NOSIG
11:00
V
27 °C 10 km+ - 070° 070° 4 kt METAR LFBD 090900Z AUTO 07004KT 030V140 CAVOK 27/10 Q1019 NOSIG
10:30
V
26 °C 10 km+ - 040° 040° 6 kt METAR LFBD 090830Z AUTO 04006KT 010V080 CAVOK 26/10 Q1019 NOSIG
10:00
V
24 °C 10 km+ - 040° 040° 6 kt METAR LFBD 090800Z AUTO 04006KT CAVOK 24/10 Q1020 NOSIG
09:30
V
23 °C 10 km+ - 050° 050° 5 kt METAR LFBD 090730Z AUTO 05005KT 020V090 CAVOK 23/10 Q1020 NOSIG
09:00
V
22 °C 10 km+ - 030° 030° 6 kt METAR LFBD 090700Z AUTO 03006KT CAVOK 22/10 Q1019 NOSIG
08:30
V
22 °C 10 km+ - 030° 030° 6 kt METAR LFBD 090630Z AUTO 03006KT CAVOK 22/09 Q1019 NOSIG
08:00
V
22 °C 10 km+ - 030° 030° 5 kt METAR LFBD 090600Z AUTO 03005KT CAVOK 22/09 Q1019 NOSIG
07:30
V
21 °C 10 km+ - 020° 020° 5 kt METAR LFBD 090530Z AUTO 02005KT 9999 FEW011 21/09 Q1019 NOSIG
07:00
V
21 °C 10 km+ - 020° 020° 5 kt METAR LFBD 090500Z AUTO 02005KT CAVOK 21/09 Q1019 NOSIG
06:30
V
21 °C 10 km+ - 020° 020° 4 kt METAR LFBD 090430Z AUTO 02004KT 350V050 CAVOK 21/09 Q1018 NOSIG
06:00
V
21 °C 10 km+ - 030° 030° 6 kt METAR LFBD 090400Z AUTO 03006KT CAVOK 21/09 Q1018 NOSIG
05:30
V
21 °C 10 km+ - 020° 020° 5 kt METAR LFBD 090330Z AUTO 02005KT CAVOK 21/09 Q1018 NOSIG
05:00
V
22 °C 10 km+ - 020° 020° 5 kt METAR LFBD 090300Z AUTO 02005KT CAVOK 22/09 Q1018 NOSIG
04:30
V
22 °C 10 km+ - 010° 010° 5 kt METAR LFBD 090230Z AUTO 01005KT CAVOK 22/09 Q1018 NOSIG
04:00
V
22 °C 10 km+ - 020° 020° 5 kt METAR LFBD 090200Z AUTO 02005KT CAVOK 22/09 Q1018 NOSIG
03:30
V
23 °C 10 km+ - 020° 020° 6 kt METAR LFBD 090130Z AUTO 02006KT CAVOK 23/08 Q1018 NOSIG
03:00
V
24 °C 10 km+ - 030° 030° 5 kt METAR LFBD 090100Z AUTO 03005KT CAVOK 24/08 Q1018 NOSIG
02:30
V
24 °C 10 km+ - 020° 020° 5 kt METAR LFBD 090030Z AUTO 02005KT CAVOK 24/08 Q1018 NOSIG
02:00
V
24 °C 10 km+ - 020° 020° 5 kt METAR LFBD 090000Z AUTO 02005KT CAVOK 24/08 Q1018 NOSIG
01:30
V
25 °C 10 km+ - 020° 020° 7 kt METAR LFBD 082330Z AUTO 02007KT CAVOK 25/08 Q1018 NOSIG
01:00
V
26 °C 10 km+ - 020° 020° 7 kt METAR LFBD 082300Z AUTO 02007KT CAVOK 26/08 Q1018 NOSIG
00:30
V
27 °C 10 km+ - 020° 020° 7 kt METAR LFBD 082230Z AUTO 02007KT CAVOK 27/09 Q1018 NOSIG
00:00
V
27 °C 10 km+ - 030° 030° 8 kt METAR LFBD 082200Z AUTO 03008KT CAVOK 27/08 Q1018 NOSIG

8 de agosto de 2022

Hora Código Tiempo Temp. Visibilidad Cielo nuboso Viento METAR/SPECI
23:30
V
28 °C 10 km+ - 030° 030° 8 kt METAR LFBD 082130Z AUTO 03008KT CAVOK 28/09 Q1018 NOSIG
23:00
V
29 °C 10 km+ - 030° 030° 10 kt METAR LFBD 082100Z AUTO 03010KT CAVOK 29/09 Q1018 NOSIG
22:30
V
29 °C 10 km+ - 020° 020° 9 kt METAR LFBD 082030Z AUTO 02009KT CAVOK 29/10 Q1018 NOSIG
22:00
V
30 °C 10 km+ - 020° 020° 9 kt METAR LFBD 082000Z AUTO 02009KT CAVOK 30/11 Q1017 NOSIG
21:30
V
30 °C 10 km+ - 020° 020° 9 kt METAR LFBD 081930Z AUTO 02009KT 350V050 CAVOK 30/11 Q1017 NOSIG
21:00
V
31 °C 10 km+ - 020° 020° 9 kt METAR LFBD 081900Z AUTO 02009KT CAVOK 31/11 Q1017 NOSIG
20:30
V
33 °C 10 km+ - 020° 020° 10 kt METAR LFBD 081830Z AUTO 02010KT CAVOK 33/10 Q1016 NOSIG
20:00
V
33 °C 10 km+ - 020° 020° 10 kt METAR LFBD 081800Z AUTO 02010KT CAVOK 33/09 Q1016 NOSIG
19:30
V
34 °C 10 km+ - 010° 010° 10 kt METAR LFBD 081730Z AUTO 01010KT 340V060 CAVOK 34/07 Q1016 NOSIG
19:00
V
34 °C 10 km+ - 020° 020° 11 kt METAR LFBD 081700Z AUTO 02011KT CAVOK 34/07 Q1016 NOSIG
18:30
V
35 °C 10 km+ - 040° 040° 11 kt METAR LFBD 081630Z AUTO 04011KT 010V100 CAVOK 35/06 Q1016 NOSIG
18:00
V
34 °C 10 km+ - 030° 030° 9 kt METAR LFBD 081600Z AUTO 03009KT 360V080 CAVOK 34/07 Q1016 NOSIG
17:30
V
35 °C 10 km+ - 040° 040° 9 kt METAR LFBD 081530Z AUTO 04009KT 360V090 CAVOK 35/07 Q1016 NOSIG
17:00
V
34 °C 10 km+ - Var Var 8 kt METAR LFBD 081500Z AUTO VRB08KT CAVOK 34/07 Q1016 NOSIG
16:30
V
34 °C 10 km+ - 030° 030° 8 - 18 kt METAR LFBD 081430Z AUTO 03008G18KT 350V070 CAVOK 34/06 Q1016 NOSIG
16:00
V
34 °C 10 km+ - 060° 060° 9 kt METAR LFBD 081400Z AUTO 06009KT 020V100 CAVOK 34/06 Q1017 NOSIG
15:30
V
33 °C 10 km+ - 030° 030° 11 kt METAR LFBD 081330Z AUTO 03011KT 340V060 CAVOK 33/06 Q1017 NOSIG
15:00
V
33 °C 10 km+ - 050° 050° 10 kt METAR LFBD 081300Z AUTO 05010KT 360V090 CAVOK 33/06 Q1017 NOSIG
Datos más antiguos

Nosotros y terceros seguimos tu comportamiento en Internet en nuestro sitio web con cookies. Si continúas, asumimos que estás de acuerdo con nuestra política de cookies. Más información